sensor_id;sensor_type;location;lat;lon;timestamp;pressure;altitude;pressure_sealevel;temperature;humidity
68822;BME280;55834;50.870;4.606;2022-10-16T00:01:31;100350.31;;;12.51;59.28
68822;BME280;55834;50.870;4.606;2022-10-16T00:03:59;100345.38;;;12.64;58.41
68822;BME280;55834;50.870;4.606;2022-10-16T00:06:25;100351.41;;;12.25;58.80
68822;BME280;55834;50.870;4.606;2022-10-16T00:08:51;100355.47;;;11.68;60.47
68822;BME280;55834;50.870;4.606;2022-10-16T00:11:24;100352.00;;;12.10;60.52
68822;BME280;55834;50.870;4.606;2022-10-16T00:13:52;100361.78;;;12.30;60.27
68822;BME280;55834;50.870;4.606;2022-10-16T00:16:20;100360.06;;;12.29;59.96
68822;BME280;55834;50.870;4.606;2022-10-16T00:18:45;100364.84;;;12.41;58.94
68822;BME280;55834;50.870;4.606;2022-10-16T00:21:23;100359.81;;;11.69;60.31
68822;BME280;55834;50.870;4.606;2022-10-16T00:23:54;100369.53;;;12.12;60.11
68822;BME280;55834;50.870;4.606;2022-10-16T00:26:20;100371.53;;;11.85;60.35
68822;BME280;55834;50.870;4.606;2022-10-16T00:28:47;100372.41;;;12.08;60.29
68822;BME280;55834;50.870;4.606;2022-10-16T00:31:13;100375.16;;;12.05;60.21
68822;BME280;55834;50.870;4.606;2022-10-16T00:33:39;100380.03;;;11.93;60.49
68822;BME280;55834;50.870;4.606;2022-10-16T00:36:06;100370.19;;;12.19;60.24
68822;BME280;55834;50.870;4.606;2022-10-16T00:38:32;100365.50;;;12.26;59.62
68822;BME280;55834;50.870;4.606;2022-10-16T00:40:57;100373.00;;;12.36;58.98
68822;BME280;55834;50.870;4.606;2022-10-16T00:43:33;100371.06;;;12.40;58.65
68822;BME280;55834;50.870;4.606;2022-10-16T00:46:05;100364.75;;;12.22;58.96
68822;BME280;55834;50.870;4.606;2022-10-16T00:48:31;100375.56;;;12.38;58.81
68822;BME280;55834;50.870;4.606;2022-10-16T00:50:57;100379.41;;;12.31;58.93
68822;BME280;55834;50.870;4.606;2022-10-16T00:53:24;100380.75;;;11.97;60.12
68822;BME280;55834;50.870;4.606;2022-10-16T00:55:50;100384.66;;;11.65;61.42
68822;BME280;55834;50.870;4.606;2022-10-16T00:58:15;100381.53;;;11.77;61.52
68822;BME280;55834;50.870;4.606;2022-10-16T01:00:41;100376.28;;;11.99;60.69
68822;BME280;55834;50.870;4.606;2022-10-16T01:03:26;100381.03;;;12.13;60.41
68822;BME280;55834;50.870;4.606;2022-10-16T01:06:04;100387.22;;;12.12;60.00
68822;BME280;55834;50.870;4.606;2022-10-16T01:11:35;100389.06;;;12.10;59.59
68822;BME280;55834;50.870;4.606;2022-10-16T01:14:15;100380.50;;;12.03;59.90
68822;BME280;55834;50.870;4.606;2022-10-16T01:16:59;100383.69;;;11.89;60.10
68822;BME280;55834;50.870;4.606;2022-10-16T01:21:57;100391.34;;;11.97;59.53
68822;BME280;55834;50.870;4.606;2022-10-16T01:24:31;100390.34;;;11.78;61.06
68822;BME280;55834;50.870;4.606;2022-10-16T01:27:07;100382.84;;;11.89;60.78
68822;BME280;55834;50.870;4.606;2022-10-16T01:32:10;100383.09;;;12.27;59.81
68822;BME280;55834;50.870;4.606;2022-10-16T01:34:44;100387.03;;;12.16;60.41
68822;BME280;55834;50.870;4.606;2022-10-16T01:37:15;100386.50;;;12.08;60.42
68822;BME280;55834;50.870;4.606;2022-10-16T01:39:46;100381.53;;;12.21;60.18
68822;BME280;55834;50.870;4.606;2022-10-16T01:42:20;100375.00;;;12.30;59.40
68822;BME280;55834;50.870;4.606;2022-10-16T01:44:48;100370.63;;;12.08;60.19
68822;BME280;55834;50.870;4.606;2022-10-16T01:47:15;100364.38;;;12.31;59.92
68822;BME280;55834;50.870;4.606;2022-10-16T01:49:41;100369.47;;;12.36;59.46
68822;BME280;55834;50.870;4.606;2022-10-16T01:52:12;100368.09;;;12.05;60.23
68822;BME280;55834;50.870;4.606;2022-10-16T01:54:41;100375.53;;;11.73;60.52
68822;BME280;55834;50.870;4.606;2022-10-16T01:57:07;100376.13;;;11.80;61.90
68822;BME280;55834;50.870;4.606;2022-10-16T01:59:36;100378.81;;;12.02;61.36
68822;BME280;55834;50.870;4.606;2022-10-16T02:02:06;100375.56;;;11.72;61.41
68822;BME280;55834;50.870;4.606;2022-10-16T02:04:37;100387.72;;;12.00;61.54
68822;BME280;55834;50.870;4.606;2022-10-16T02:07:03;100387.84;;;11.96;60.14
68822;BME280;55834;50.870;4.606;2022-10-16T02:09:30;100387.75;;;11.76;61.70
68822;BME280;55834;50.870;4.606;2022-10-16T02:11:59;100383.47;;;12.17;60.60
68822;BME280;55834;50.870;4.606;2022-10-16T02:14:28;100388.13;;;12.33;59.78
68822;BME280;55834;50.870;4.606;2022-10-16T02:16:53;100377.94;;;12.44;59.40
68822;BME280;55834;50.870;4.606;2022-10-16T02:19:20;100379.19;;;12.35;60.04
68822;BME280;55834;50.870;4.606;2022-10-16T02:21:56;100391.41;;;12.17;59.80
68822;BME280;55834;50.870;4.606;2022-10-16T02:24:28;100381.50;;;12.01;60.53
68822;BME280;55834;50.870;4.606;2022-10-16T02:29:44;100383.03;;;12.06;60.74
68822;BME280;55834;50.870;4.606;2022-10-16T02:32:15;100395.81;;;11.95;60.56
68822;BME280;55834;50.870;4.606;2022-10-16T02:34:42;100388.72;;;12.19;60.25
68822;BME280;55834;50.870;4.606;2022-10-16T02:37:09;100392.09;;;12.23;60.17
68822;BME280;55834;50.870;4.606;2022-10-16T02:39:35;100401.72;;;12.24;60.47
68822;BME280;55834;50.870;4.606;2022-10-16T02:42:02;100396.66;;;12.19;59.92
68822;BME280;55834;50.870;4.606;2022-10-16T02:44:27;100400.19;;;12.18;60.42
68822;BME280;55834;50.870;4.606;2022-10-16T02:46:52;100398.31;;;12.22;60.22
68822;BME280;55834;50.870;4.606;2022-10-16T02:49:18;100407.56;;;12.10;61.25
68822;BME280;55834;50.870;4.606;2022-10-16T02:51:43;100396.44;;;12.24;60.71
68822;BME280;55834;50.870;4.606;2022-10-16T02:54:09;100395.28;;;12.31;60.33
68822;BME280;55834;50.870;4.606;2022-10-16T02:56:34;100399.34;;;12.39;59.87
68822;BME280;55834;50.870;4.606;2022-10-16T02:58:59;100410.78;;;12.18;60.21
68822;BME280;55834;50.870;4.606;2022-10-16T03:01:25;100412.44;;;12.20;60.07
68822;BME280;55834;50.870;4.606;2022-10-16T03:03:50;100411.09;;;12.32;60.03
68822;BME280;55834;50.870;4.606;2022-10-16T03:06:16;100416.44;;;12.09;60.84
68822;BME280;55834;50.870;4.606;2022-10-16T03:08:41;100404.75;;;12.14;60.21
68822;BME280;55834;50.870;4.606;2022-10-16T03:11:06;100401.88;;;12.20;60.45
68822;BME280;55834;50.870;4.606;2022-10-16T03:13:32;100413.50;;;11.94;61.23
68822;BME280;55834;50.870;4.606;2022-10-16T03:15:57;100422.59;;;11.87;61.26
68822;BME280;55834;50.870;4.606;2022-10-16T03:18:22;100417.44;;;11.61;62.99
68822;BME280;55834;50.870;4.606;2022-10-16T03:20:48;100432.31;;;11.87;62.61
68822;BME280;55834;50.870;4.606;2022-10-16T03:23:13;100431.25;;;11.44;62.42
68822;BME280;55834;50.870;4.606;2022-10-16T03:25:39;100431.41;;;11.64;62.63
68822;BME280;55834;50.870;4.606;2022-10-16T03:28:05;100426.47;;;11.79;61.89
68822;BME280;55834;50.870;4.606;2022-10-16T03:30:30;100435.94;;;11.84;61.52
68822;BME280;55834;50.870;4.606;2022-10-16T03:32:56;100435.09;;;12.06;60.94
68822;BME280;55834;50.870;4.606;2022-10-16T03:35:22;100435.72;;;12.12;61.20
68822;BME280;55834;50.870;4.606;2022-10-16T03:37:48;100437.28;;;11.94;61.67
68822;BME280;55834;50.870;4.606;2022-10-16T03:40:14;100445.31;;;12.15;61.00
68822;BME280;55834;50.870;4.606;2022-10-16T03:42:42;100430.69;;;12.28;60.61
68822;BME280;55834;50.870;4.606;2022-10-16T03:45:07;100430.38;;;12.14;60.57
68822;BME280;55834;50.870;4.606;2022-10-16T03:47:33;100422.72;;;11.84;61.98
68822;BME280;55834;50.870;4.606;2022-10-16T03:49:59;100423.75;;;11.80;61.94
68822;BME280;55834;50.870;4.606;2022-10-16T03:52:25;100432.03;;;11.71;63.28
68822;BME280;55834;50.870;4.606;2022-10-16T03:54:50;100434.41;;;12.01;62.13
68822;BME280;55834;50.870;4.606;2022-10-16T03:57:16;100428.09;;;12.05;61.04
68822;BME280;55834;50.870;4.606;2022-10-16T03:59:41;100433.25;;;12.08;61.75
68822;BME280;55834;50.870;4.606;2022-10-16T04:02:07;100442.41;;;11.99;62.15
68822;BME280;55834;50.870;4.606;2022-10-16T04:04:32;100429.78;;;11.60;63.17
68822;BME280;55834;50.870;4.606;2022-10-16T04:06:57;100433.47;;;11.80;62.57
68822;BME280;55834;50.870;4.606;2022-10-16T04:09:23;100440.69;;;11.98;62.33
68822;BME280;55834;50.870;4.606;2022-10-16T04:11:48;100445.19;;;11.96;62.15
68822;BME280;55834;50.870;4.606;2022-10-16T04:14:14;100449.13;;;12.08;61.71
68822;BME280;55834;50.870;4.606;2022-10-16T04:16:39;100454.66;;;12.02;61.98
68822;BME280;55834;50.870;4.606;2022-10-16T04:19:04;100461.69;;;11.79;62.57
68822;BME280;55834;50.870;4.606;2022-10-16T04:21:30;100463.75;;;11.94;62.67
68822;BME280;55834;50.870;4.606;2022-10-16T04:23:55;100464.34;;;11.79;63.55
68822;BME280;55834;50.870;4.606;2022-10-16T04:26:20;100465.03;;;11.84;63.15
68822;BME280;55834;50.870;4.606;2022-10-16T04:28:46;100471.53;;;11.76;63.19
68822;BME280;55834;50.870;4.606;2022-10-16T04:31:11;100471.84;;;11.66;63.69
68822;BME280;55834;50.870;4.606;2022-10-16T04:33:36;100470.03;;;11.92;62.89
68822;BME280;55834;50.870;4.606;2022-10-16T04:36:03;100478.16;;;12.09;62.52
68822;BME280;55834;50.870;4.606;2022-10-16T04:38:29;100479.50;;;11.97;61.77
68822;BME280;55834;50.870;4.606;2022-10-16T04:40:55;100480.78;;;12.11;61.96
68822;BME280;55834;50.870;4.606;2022-10-16T04:43:20;100491.16;;;12.15;61.52
68822;BME280;55834;50.870;4.606;2022-10-16T04:45:46;100487.19;;;12.04;61.95
68822;BME280;55834;50.870;4.606;2022-10-16T04:48:12;100486.56;;;12.20;61.58
68822;BME280;55834;50.870;4.606;2022-10-16T04:50:37;100499.09;;;12.15;60.85
68822;BME280;55834;50.870;4.606;2022-10-16T04:53:02;100505.06;;;11.99;62.50
68822;BME280;55834;50.870;4.606;2022-10-16T04:55:28;100505.56;;;12.08;61.75
68822;BME280;55834;50.870;4.606;2022-10-16T04:57:53;100504.06;;;12.01;62.12
68822;BME280;55834;50.870;4.606;2022-10-16T05:00:19;100510.84;;;11.61;63.38
68822;BME280;55834;50.870;4.606;2022-10-16T05:02:44;100510.22;;;11.53;62.87
68822;BME280;55834;50.870;4.606;2022-10-16T05:05:09;100513.31;;;11.41;64.49
68822;BME280;55834;50.870;4.606;2022-10-16T05:07:35;100527.09;;;11.49;63.72
68822;BME280;55834;50.870;4.606;2022-10-16T05:10:00;100523.09;;;11.64;63.30
68822;BME280;55834;50.870;4.606;2022-10-16T05:12:25;100521.09;;;11.70;63.30
68822;BME280;55834;50.870;4.606;2022-10-16T05:14:51;100531.22;;;11.83;63.62
68822;BME280;55834;50.870;4.606;2022-10-16T05:17:16;100532.25;;;11.79;63.07
68822;BME280;55834;50.870;4.606;2022-10-16T05:19:42;100544.59;;;11.53;63.54
68822;BME280;55834;50.870;4.606;2022-10-16T05:22:07;100540.06;;;11.82;63.44
68822;BME280;55834;50.870;4.606;2022-10-16T05:24:32;100549.00;;;12.03;62.64
68822;BME280;55834;50.870;4.606;2022-10-16T05:26:58;100550.59;;;12.07;62.04
68822;BME280;55834;50.870;4.606;2022-10-16T05:29:23;100553.22;;;11.83;61.87
68822;BME280;55834;50.870;4.606;2022-10-16T05:31:52;100564.25;;;11.71;62.51
68822;BME280;55834;50.870;4.606;2022-10-16T05:34:19;100564.72;;;11.59;64.04
68822;BME280;55834;50.870;4.606;2022-10-16T05:36:44;100563.88;;;11.57;64.34
68822;BME280;55834;50.870;4.606;2022-10-16T05:39:10;100562.25;;;11.26;64.37
68822;BME280;55834;50.870;4.606;2022-10-16T05:41:36;100562.03;;;11.07;63.98
68822;BME280;55834;50.870;4.606;2022-10-16T05:44:04;100556.41;;;11.18;64.86
68822;BME280;55834;50.870;4.606;2022-10-16T05:46:29;100560.09;;;11.39;63.55
68822;BME280;55834;50.870;4.606;2022-10-16T05:48:55;100565.03;;;11.48;64.38
68822;BME280;55834;50.870;4.606;2022-10-16T05:51:20;100564.06;;;11.50;63.84
68822;BME280;55834;50.870;4.606;2022-10-16T05:53:46;100566.16;;;11.67;63.47
68822;BME280;55834;50.870;4.606;2022-10-16T05:56:11;100567.13;;;11.65;63.94
68822;BME280;55834;50.870;4.606;2022-10-16T05:58:38;100568.91;;;11.64;63.01
68822;BME280;55834;50.870;4.606;2022-10-16T06:01:16;100581.34;;;11.36;63.56
68822;BME280;55834;50.870;4.606;2022-10-16T06:03:42;100582.66;;;11.22;64.80
68822;BME280;55834;50.870;4.606;2022-10-16T06:06:16;100587.41;;;10.84;66.04
68822;BME280;55834;50.870;4.606;2022-10-16T06:08:43;100594.25;;;10.64;66.18
68822;BME280;55834;50.870;4.606;2022-10-16T06:11:13;100596.63;;;11.26;66.46
68822;BME280;55834;50.870;4.606;2022-10-16T06:13:38;100597.09;;;11.12;64.67
68822;BME280;55834;50.870;4.606;2022-10-16T06:16:07;100599.94;;;11.59;64.69
68822;BME280;55834;50.870;4.606;2022-10-16T06:18:32;100596.44;;;11.32;64.42
68822;BME280;55834;50.870;4.606;2022-10-16T06:20:57;100599.31;;;11.51;64.48
68822;BME280;55834;50.870;4.606;2022-10-16T06:23:24;100609.28;;;11.69;63.48
68822;BME280;55834;50.870;4.606;2022-10-16T06:25:49;100612.84;;;11.68;63.29
68822;BME280;55834;50.870;4.606;2022-10-16T06:28:15;100618.31;;;11.64;62.87
68822;BME280;55834;50.870;4.606;2022-10-16T06:30:41;100622.09;;;11.55;63.93
68822;BME280;55834;50.870;4.606;2022-10-16T06:33:09;100614.09;;;11.58;63.96
68822;BME280;55834;50.870;4.606;2022-10-16T06:35:34;100608.28;;;11.72;63.22
68822;BME280;55834;50.870;4.606;2022-10-16T06:37:59;100620.41;;;11.79;63.00
68822;BME280;55834;50.870;4.606;2022-10-16T06:40:25;100622.56;;;11.93;61.90
68822;BME280;55834;50.870;4.606;2022-10-16T06:42:50;100621.41;;;12.00;61.21
68822;BME280;55834;50.870;4.606;2022-10-16T06:45:17;100624.69;;;12.07;61.33
68822;BME280;55834;50.870;4.606;2022-10-16T06:47:42;100632.81;;;12.02;61.39
68822;BME280;55834;50.870;4.606;2022-10-16T06:50:08;100636.78;;;12.14;61.78
68822;BME280;55834;50.870;4.606;2022-10-16T06:52:34;100644.72;;;12.14;61.02
68822;BME280;55834;50.870;4.606;2022-10-16T06:54:59;100643.28;;;12.05;61.99
68822;BME280;55834;50.870;4.606;2022-10-16T06:57:25;100637.38;;;12.22;61.57
68822;BME280;55834;50.870;4.606;2022-10-16T06:59:50;100648.34;;;12.11;62.88
68822;BME280;55834;50.870;4.606;2022-10-16T07:02:16;100660.91;;;12.30;62.95
68822;BME280;55834;50.870;4.606;2022-10-16T07:04:41;100661.13;;;12.47;62.84
68822;BME280;55834;50.870;4.606;2022-10-16T07:07:06;100673.94;;;12.83;62.16
68822;BME280;55834;50.870;4.606;2022-10-16T07:09:32;100670.47;;;12.34;62.27
68822;BME280;55834;50.870;4.606;2022-10-16T07:11:57;100677.56;;;12.57;62.58
68822;BME280;55834;50.870;4.606;2022-10-16T07:14:23;100676.88;;;12.75;62.64
68822;BME280;55834;50.870;4.606;2022-10-16T07:16:48;100677.00;;;12.72;63.19
68822;BME280;55834;50.870;4.606;2022-10-16T07:19:14;100686.22;;;12.85;63.07
68822;BME280;55834;50.870;4.606;2022-10-16T07:21:42;100688.81;;;13.31;61.75
68822;BME280;55834;50.870;4.606;2022-10-16T07:24:13;100697.47;;;13.58;59.93
68822;BME280;55834;50.870;4.606;2022-10-16T07:26:39;100696.22;;;13.67;60.44
68822;BME280;55834;50.870;4.606;2022-10-16T07:29:07;100706.38;;;13.33;60.92
68822;BME280;55834;50.870;4.606;2022-10-16T07:31:36;100699.41;;;13.31;60.25
68822;BME280;55834;50.870;4.606;2022-10-16T07:34:01;100707.63;;;13.47;60.43
68822;BME280;55834;50.870;4.606;2022-10-16T07:36:27;100717.25;;;13.71;59.74
68822;BME280;55834;50.870;4.606;2022-10-16T07:38:52;100721.13;;;13.63;60.37
68822;BME280;55834;50.870;4.606;2022-10-16T07:41:19;100729.69;;;13.47;59.63
68822;BME280;55834;50.870;4.606;2022-10-16T07:43:48;100732.59;;;13.63;60.15
68822;BME280;55834;50.870;4.606;2022-10-16T07:46:15;100727.72;;;13.52;60.10
68822;BME280;55834;50.870;4.606;2022-10-16T07:48:42;100740.56;;;13.63;59.57
68822;BME280;55834;50.870;4.606;2022-10-16T07:51:11;100743.47;;;13.79;59.79
68822;BME280;55834;50.870;4.606;2022-10-16T07:53:36;100756.75;;;14.20;58.92
68822;BME280;55834;50.870;4.606;2022-10-16T07:56:04;100760.53;;;14.35;58.37
68822;BME280;55834;50.870;4.606;2022-10-16T07:58:31;100761.75;;;14.28;57.61
68822;BME280;55834;50.870;4.606;2022-10-16T08:00:57;100766.22;;;14.27;57.59
68822;BME280;55834;50.870;4.606;2022-10-16T08:03:23;100761.91;;;14.45;57.65
68822;BME280;55834;50.870;4.606;2022-10-16T08:05:49;100768.47;;;14.36;57.73
68822;BME280;55834;50.870;4.606;2022-10-16T08:08:15;100773.06;;;14.33;59.34
68822;BME280;55834;50.870;4.606;2022-10-16T08:10:41;100779.00;;;14.58;58.55
68822;BME280;55834;50.870;4.606;2022-10-16T08:13:07;100781.75;;;14.16;57.36
68822;BME280;55834;50.870;4.606;2022-10-16T08:15:33;100777.75;;;14.47;58.70
68822;BME280;55834;50.870;4.606;2022-10-16T08:18:03;100779.75;;;14.62;57.61
68822;BME280;55834;50.870;4.606;2022-10-16T08:20:30;100782.06;;;14.70;56.64
68822;BME280;55834;50.870;4.606;2022-10-16T08:22:55;100777.44;;;14.54;57.12
68822;BME280;55834;50.870;4.606;2022-10-16T08:25:22;100787.09;;;14.76;57.26
68822;BME280;55834;50.870;4.606;2022-10-16T08:27:48;100789.00;;;14.53;56.83
68822;BME280;55834;50.870;4.606;2022-10-16T08:30:15;100780.41;;;14.67;57.62
68822;BME280;55834;50.870;4.606;2022-10-16T08:32:40;100781.69;;;14.98;55.49
68822;BME280;55834;50.870;4.606;2022-10-16T08:35:10;100776.00;;;15.24;55.29
68822;BME280;55834;50.870;4.606;2022-10-16T08:37:36;100780.47;;;15.24;55.82
68822;BME280;55834;50.870;4.606;2022-10-16T08:40:02;100781.56;;;15.20;54.77
68822;BME280;55834;50.870;4.606;2022-10-16T08:42:47;100778.44;;;15.67;54.76
68822;BME280;55834;50.870;4.606;2022-10-16T08:47:53;100780.72;;;15.74;53.64
68822;BME280;55834;50.870;4.606;2022-10-16T08:50:27;100793.09;;;15.93;53.21
68822;BME280;55834;50.870;4.606;2022-10-16T08:52:53;100787.13;;;15.88;52.90
68822;BME280;55834;50.870;4.606;2022-10-16T08:57:53;100786.41;;;15.67;54.37
68822;BME280;55834;50.870;4.606;2022-10-16T09:00:19;100783.47;;;16.08;52.88
68822;BME280;55834;50.870;4.606;2022-10-16T09:03:07;100787.22;;;15.86;52.77
68822;BME280;55834;50.870;4.606;2022-10-16T09:13:28;100786.91;;;15.75;53.57
68822;BME280;55834;50.870;4.606;2022-10-16T09:21:35;100792.47;;;16.24;50.93
68822;BME280;55834;50.870;4.606;2022-10-16T09:24:14;100794.09;;;16.44;51.03
68822;BME280;55834;50.870;4.606;2022-10-16T09:26:40;100797.63;;;16.78;50.37
68822;BME280;55834;50.870;4.606;2022-10-16T09:29:05;100802.66;;;16.66;49.72
68822;BME280;55834;50.870;4.606;2022-10-16T09:31:31;100809.28;;;16.59;51.27
68822;BME280;55834;50.870;4.606;2022-10-16T09:34:00;100818.91;;;16.95;49.91
68822;BME280;55834;50.870;4.606;2022-10-16T09:36:37;100818.81;;;17.14;50.32
68822;BME280;55834;50.870;4.606;2022-10-16T09:39:06;100821.22;;;17.19;48.98
68822;BME280;55834;50.870;4.606;2022-10-16T09:41:34;100815.97;;;17.17;48.76
68822;BME280;55834;50.870;4.606;2022-10-16T09:44:01;100826.84;;;15.56;51.40
68822;BME280;55834;50.870;4.606;2022-10-16T09:46:33;100823.63;;;16.57;50.42
68822;BME280;55834;50.870;4.606;2022-10-16T09:49:01;100832.25;;;16.62;51.26
68822;BME280;55834;50.870;4.606;2022-10-16T09:51:28;100824.41;;;16.41;50.77
68822;BME280;55834;50.870;4.606;2022-10-16T09:54:21;100830.63;;;16.75;50.29
68822;BME280;55834;50.870;4.606;2022-10-16T09:56:47;100828.88;;;16.91;49.03
68822;BME280;55834;50.870;4.606;2022-10-16T09:59:21;100826.41;;;17.38;48.93
68822;BME280;55834;50.870;4.606;2022-10-16T10:01:54;100818.22;;;17.56;47.99
68822;BME280;55834;50.870;4.606;2022-10-16T10:04:22;100828.41;;;17.34;48.45
68822;BME280;55834;50.870;4.606;2022-10-16T10:07:17;100841.91;;;16.98;47.51
68822;BME280;55834;50.870;4.606;2022-10-16T10:09:44;100841.28;;;17.42;47.21
68822;BME280;55834;50.870;4.606;2022-10-16T10:12:30;100836.66;;;17.61;47.72
68822;BME280;55834;50.870;4.606;2022-10-16T10:15:18;100844.38;;;17.18;47.76
68822;BME280;55834;50.870;4.606;2022-10-16T10:17:54;100837.06;;;17.22;47.19
68822;BME280;55834;50.870;4.606;2022-10-16T10:22:51;100855.72;;;16.88;47.41
68822;BME280;55834;50.870;4.606;2022-10-16T10:30:44;100839.59;;;16.74;49.94
68822;BME280;55834;50.870;4.606;2022-10-16T10:49:59;100847.78;;;17.85;46.36
68822;BME280;55834;50.870;4.606;2022-10-16T10:55:20;100845.88;;;18.33;45.21
68822;BME280;55834;50.870;4.606;2022-10-16T11:01:13;100848.09;;;18.11;45.38
68822;BME280;55834;50.870;4.606;2022-10-16T11:09:11;100850.28;;;17.07;46.01
68822;BME280;55834;50.870;4.606;2022-10-16T11:11:42;100841.28;;;17.73;45.89
68822;BME280;55834;50.870;4.606;2022-10-16T11:16:42;100852.44;;;17.81;45.14
68822;BME280;55834;50.870;4.606;2022-10-16T11:19:14;100846.91;;;17.85;45.63
68822;BME280;55834;50.870;4.606;2022-10-16T11:21:48;100852.75;;;17.91;45.82
68822;BME280;55834;50.870;4.606;2022-10-16T11:24:23;100850.97;;;17.92;45.82
68822;BME280;55834;50.870;4.606;2022-10-16T11:26:56;100843.28;;;18.01;45.85
68822;BME280;55834;50.870;4.606;2022-10-16T11:29:29;100846.50;;;17.76;45.68
68822;BME280;55834;50.870;4.606;2022-10-16T11:32:11;100842.25;;;18.04;45.54
68822;BME280;55834;50.870;4.606;2022-10-16T11:34:48;100831.47;;;18.06;44.46
68822;BME280;55834;50.870;4.606;2022-10-16T11:37:29;100847.34;;;18.23;44.49
68822;BME280;55834;50.870;4.606;2022-10-16T11:40:03;100836.78;;;18.21;43.52
68822;BME280;55834;50.870;4.606;2022-10-16T11:42:43;100844.81;;;17.26;46.13
68822;BME280;55834;50.870;4.606;2022-10-16T11:45:34;100847.31;;;17.29;45.59
68822;BME280;55834;50.870;4.606;2022-10-16T11:48:15;100836.91;;;17.56;45.28
68822;BME280;55834;50.870;4.606;2022-10-16T11:51:02;100843.69;;;17.30;46.82
68822;BME280;55834;50.870;4.606;2022-10-16T11:53:46;100836.66;;;17.77;45.41
68822;BME280;55834;50.870;4.606;2022-10-16T11:56:17;100849.03;;;17.30;45.93
68822;BME280;55834;50.870;4.606;2022-10-16T11:58:54;100839.66;;;17.71;45.90
68822;BME280;55834;50.870;4.606;2022-10-16T12:09:01;100833.78;;;18.12;45.46
68822;BME280;55834;50.870;4.606;2022-10-16T12:14:32;100837.19;;;17.84;45.68
68822;BME280;55834;50.870;4.606;2022-10-16T12:19:18;100842.44;;;16.87;49.04
68822;BME280;55834;50.870;4.606;2022-10-16T12:21:44;100844.50;;;17.64;47.66
68822;BME280;55834;50.870;4.606;2022-10-16T12:26:54;100852.25;;;17.53;47.98
68822;BME280;55834;50.870;4.606;2022-10-16T12:29:41;100854.97;;;17.35;46.82
68822;BME280;55834;50.870;4.606;2022-10-16T12:32:28;100852.44;;;17.66;47.39
68822;BME280;55834;50.870;4.606;2022-10-16T12:34:54;100849.41;;;17.88;47.07
68822;BME280;55834;50.870;4.606;2022-10-16T12:37:25;100854.94;;;18.00;46.97
68822;BME280;55834;50.870;4.606;2022-10-16T12:39:53;100850.19;;;18.36;46.33
68822;BME280;55834;50.870;4.606;2022-10-16T12:44:51;100852.00;;;18.35;46.09
68822;BME280;55834;50.870;4.606;2022-10-16T12:47:35;100859.41;;;17.84;46.18
68822;BME280;55834;50.870;4.606;2022-10-16T12:50:03;100860.44;;;17.81;46.31
68822;BME280;55834;50.870;4.606;2022-10-16T12:52:48;100853.00;;;17.71;46.54
68822;BME280;55834;50.870;4.606;2022-10-16T12:55:17;100855.97;;;17.82;45.86
68822;BME280;55834;50.870;4.606;2022-10-16T13:00:56;100855.53;;;18.36;45.17
68822;BME280;55834;50.870;4.606;2022-10-16T13:22:49;100858.38;;;18.63;43.54
68822;BME280;55834;50.870;4.606;2022-10-16T13:25:46;100864.13;;;18.71;44.35
68822;BME280;55834;50.870;4.606;2022-10-16T13:28:22;100856.50;;;18.65;44.47
68822;BME280;55834;50.870;4.606;2022-10-16T13:30:53;100850.09;;;18.67;44.33
68822;BME280;55834;50.870;4.606;2022-10-16T13:35:51;100855.16;;;18.72;44.18
68822;BME280;55834;50.870;4.606;2022-10-16T13:38:18;100854.03;;;18.76;44.49
68822;BME280;55834;50.870;4.606;2022-10-16T13:41:05;100845.16;;;18.76;44.39
68822;BME280;55834;50.870;4.606;2022-10-16T13:46:05;100848.09;;;18.85;43.56
68822;BME280;55834;50.870;4.606;2022-10-16T13:48:33;100854.31;;;18.86;44.16
68822;BME280;55834;50.870;4.606;2022-10-16T13:51:19;100845.50;;;18.84;43.88
68822;BME280;55834;50.870;4.606;2022-10-16T13:53:45;100843.91;;;18.81;43.91
68822;BME280;55834;50.870;4.606;2022-10-16T13:56:12;100835.19;;;18.78;43.75
68822;BME280;55834;50.870;4.606;2022-10-16T13:58:38;100824.69;;;18.75;43.53
68822;BME280;55834;50.870;4.606;2022-10-16T14:01:06;100832.81;;;18.73;44.43
68822;BME280;55834;50.870;4.606;2022-10-16T14:03:39;100826.50;;;18.74;44.95
68822;BME280;55834;50.870;4.606;2022-10-16T14:06:06;100840.00;;;18.73;44.82
68822;BME280;55834;50.870;4.606;2022-10-16T14:08:42;100837.78;;;18.65;44.82
68822;BME280;55834;50.870;4.606;2022-10-16T14:11:08;100839.22;;;18.70;44.02
68822;BME280;55834;50.870;4.606;2022-10-16T14:13:37;100840.00;;;18.73;44.33
68822;BME280;55834;50.870;4.606;2022-10-16T14:16:25;100839.03;;;18.74;44.04
68822;BME280;55834;50.870;4.606;2022-10-16T14:19:02;100836.34;;;18.74;43.97
68822;BME280;55834;50.870;4.606;2022-10-16T14:21:29;100842.75;;;18.71;44.18
68822;BME280;55834;50.870;4.606;2022-10-16T14:23:55;100853.53;;;18.69;44.30
68822;BME280;55834;50.870;4.606;2022-10-16T14:26:24;100844.66;;;18.69;44.54
68822;BME280;55834;50.870;4.606;2022-10-16T14:29:04;100838.38;;;18.70;45.39
68822;BME280;55834;50.870;4.606;2022-10-16T14:31:35;100841.50;;;18.77;44.64
68822;BME280;55834;50.870;4.606;2022-10-16T14:34:02;100843.53;;;18.73;44.64
68822;BME280;55834;50.870;4.606;2022-10-16T14:36:28;100842.56;;;18.74;45.44
68822;BME280;55834;50.870;4.606;2022-10-16T14:41:23;100837.00;;;18.77;45.18
68822;BME280;55834;50.870;4.606;2022-10-16T14:43:54;100833.28;;;18.65;44.08
68822;BME280;55834;50.870;4.606;2022-10-16T14:46:22;100830.72;;;18.64;44.66
68822;BME280;55834;50.870;4.606;2022-10-16T14:48:58;100835.75;;;18.68;44.97
68822;BME280;55834;50.870;4.606;2022-10-16T14:51:25;100840.94;;;18.71;45.21
68822;BME280;55834;50.870;4.606;2022-10-16T14:53:51;100838.91;;;18.61;45.45
68822;BME280;55834;50.870;4.606;2022-10-16T14:56:25;100832.63;;;18.62;45.09